Frodsham, United Kingdom
Current Conditions -  °F | °C
As of 8:20 AM on Friday 28 Nov 2014 (Local Time) from EGGP Reporting Station
Broken Clouds Broken Clouds  
Wind Chill: 44°   Ceiling: 1600
Heat Index: 48°   Visibility: 4mi
Dew Point: 46°   Wind: 10mph
Humidity: 93%   Direction: 50°NE
Pressure: 29.65"   Gusts: NA
Location:  53.29°N, 2.73°W
Report Text: EGGP 280820Z 05009KT 7000 BKN016 09/08 Q1004
Loading
Personal Weather Stations






























Interactive Weather Map New forecast layout! Learn more

10-Day Weather Forecast

Advertisements
Track Severe Weather on mobile